sensor_id;sensor_type;location;lat;lon;timestamp;P1;durP1;ratioP1;P2;durP2;ratioP2
62554;SDS011;48610;52.144;8.624;2022-10-31T00:01:00;49.70;;;19.48;;
62554;SDS011;48610;52.144;8.624;2022-10-31T00:04:01;49.92;;;19.75;;
62554;SDS011;48610;52.144;8.624;2022-10-31T00:07:02;56.00;;;18.15;;
62554;SDS011;48610;52.144;8.624;2022-10-31T00:10:03;52.65;;;18.50;;
62554;SDS011;48610;52.144;8.624;2022-10-31T00:13:04;45.78;;;19.88;;
62554;SDS011;48610;52.144;8.624;2022-10-31T00:16:12;39.03;;;18.95;;
62554;SDS011;48610;52.144;8.624;2022-10-31T00:19:16;45.72;;;20.20;;
62554;SDS011;48610;52.144;8.624;2022-10-31T00:22:17;51.38;;;20.58;;
62554;SDS011;48610;52.144;8.624;2022-10-31T00:25:17;47.33;;;20.20;;
62554;SDS011;48610;52.144;8.624;2022-10-31T00:28:18;53.20;;;19.80;;
62554;SDS011;48610;52.144;8.624;2022-10-31T00:31:19;50.67;;;20.67;;
62554;SDS011;48610;52.144;8.624;2022-10-31T00:34:19;59.45;;;21.17;;
62554;SDS011;48610;52.144;8.624;2022-10-31T00:37:20;58.80;;;18.85;;
62554;SDS011;48610;52.144;8.624;2022-10-31T00:40:20;52.88;;;19.33;;
62554;SDS011;48610;52.144;8.624;2022-10-31T00:43:21;41.85;;;18.00;;
62554;SDS011;48610;52.144;8.624;2022-10-31T00:46:22;44.03;;;16.95;;
62554;SDS011;48610;52.144;8.624;2022-10-31T00:49:22;49.63;;;17.58;;
62554;SDS011;48610;52.144;8.624;2022-10-31T00:52:23;47.65;;;18.63;;
62554;SDS011;48610;52.144;8.624;2022-10-31T00:55:23;37.42;;;18.70;;
62554;SDS011;48610;52.144;8.624;2022-10-31T00:58:24;49.47;;;19.80;;
62554;SDS011;48610;52.144;8.624;2022-10-31T01:01:25;46.33;;;19.50;;
62554;SDS011;48610;52.144;8.624;2022-10-31T01:04:25;47.25;;;18.95;;
62554;SDS011;48610;52.144;8.624;2022-10-31T01:07:26;53.30;;;20.10;;
62554;SDS011;48610;52.144;8.624;2022-10-31T01:10:27;54.05;;;20.58;;
62554;SDS011;48610;52.144;8.624;2022-10-31T01:13:27;48.22;;;20.30;;
62554;SDS011;48610;52.144;8.624;2022-10-31T01:16:28;35.80;;;16.42;;
62554;SDS011;48610;52.144;8.624;2022-10-31T01:19:29;44.28;;;17.20;;
62554;SDS011;48610;52.144;8.624;2022-10-31T01:22:30;53.83;;;19.95;;
62554;SDS011;48610;52.144;8.624;2022-10-31T01:25:30;45.63;;;19.60;;
62554;SDS011;48610;52.144;8.624;2022-10-31T01:28:31;55.05;;;20.15;;
62554;SDS011;48610;52.144;8.624;2022-10-31T01:31:33;62.22;;;19.58;;
62554;SDS011;48610;52.144;8.624;2022-10-31T01:34:37;45.95;;;19.70;;
62554;SDS011;48610;52.144;8.624;2022-10-31T01:37:37;52.15;;;19.52;;
62554;SDS011;48610;52.144;8.624;2022-10-31T01:40:38;49.15;;;19.92;;
62554;SDS011;48610;52.144;8.624;2022-10-31T01:43:42;44.50;;;19.38;;
62554;SDS011;48610;52.144;8.624;2022-10-31T01:49:48;60.83;;;19.80;;
62554;SDS011;48610;52.144;8.624;2022-10-31T01:52:54;49.92;;;20.50;;
62554;SDS011;48610;52.144;8.624;2022-10-31T01:55:55;40.17;;;19.52;;
62554;SDS011;48610;52.144;8.624;2022-10-31T01:58:56;41.58;;;18.23;;
62554;SDS011;48610;52.144;8.624;2022-10-31T02:01:58;45.25;;;18.45;;
62554;SDS011;48610;52.144;8.624;2022-10-31T02:05:00;42.70;;;18.30;;
62554;SDS011;48610;52.144;8.624;2022-10-31T02:08:06;47.72;;;22.88;;
62554;SDS011;48610;52.144;8.624;2022-10-31T02:11:11;45.45;;;22.00;;
62554;SDS011;48610;52.144;8.624;2022-10-31T02:14:12;42.13;;;18.63;;
62554;SDS011;48610;52.144;8.624;2022-10-31T02:17:13;42.78;;;17.63;;
62554;SDS011;48610;52.144;8.624;2022-10-31T02:20:16;37.50;;;19.98;;
62554;SDS011;48610;52.144;8.624;2022-10-31T02:30:09;48.45;;;18.50;;
62554;SDS011;48610;52.144;8.624;2022-10-31T02:33:16;45.45;;;17.10;;
62554;SDS011;48610;52.144;8.624;2022-10-31T02:36:34;36.22;;;16.58;;
62554;SDS011;48610;52.144;8.624;2022-10-31T02:39:56;29.45;;;15.10;;
62554;SDS011;48610;52.144;8.624;2022-10-31T02:43:12;48.28;;;15.68;;
62554;SDS011;48610;52.144;8.624;2022-10-31T02:49:57;42.00;;;16.83;;
62554;SDS011;48610;52.144;8.624;2022-10-31T02:53:03;32.47;;;15.32;;
62554;SDS011;48610;52.144;8.624;2022-10-31T02:59:14;40.83;;;15.10;;
62554;SDS011;48610;52.144;8.624;2022-10-31T03:06:00;22.50;;;13.45;;
62554;SDS011;48610;52.144;8.624;2022-10-31T03:09:20;39.45;;;15.05;;
62554;SDS011;48610;52.144;8.624;2022-10-31T03:12:58;30.70;;;14.93;;
62554;SDS011;48610;52.144;8.624;2022-10-31T03:19:08;44.55;;;14.05;;
62554;SDS011;48610;52.144;8.624;2022-10-31T03:22:21;36.77;;;15.07;;
62554;SDS011;48610;52.144;8.624;2022-10-31T03:25:25;39.35;;;14.95;;
62554;SDS011;48610;52.144;8.624;2022-10-31T03:28:28;41.00;;;14.80;;
62554;SDS011;48610;52.144;8.624;2022-10-31T03:31:35;39.33;;;15.50;;
62554;SDS011;48610;52.144;8.624;2022-10-31T03:34:45;42.70;;;15.88;;
62554;SDS011;48610;52.144;8.624;2022-10-31T03:37:47;43.08;;;14.05;;
62554;SDS011;48610;52.144;8.624;2022-10-31T03:40:51;33.30;;;15.10;;
62554;SDS011;48610;52.144;8.624;2022-10-31T03:43:57;33.53;;;15.65;;
62554;SDS011;48610;52.144;8.624;2022-10-31T03:47:01;33.42;;;14.70;;
62554;SDS011;48610;52.144;8.624;2022-10-31T03:50:04;31.65;;;13.10;;
62554;SDS011;48610;52.144;8.624;2022-10-31T03:53:09;25.80;;;12.15;;
62554;SDS011;48610;52.144;8.624;2022-10-31T04:00:07;28.90;;;12.35;;
62554;SDS011;48610;52.144;8.624;2022-10-31T04:03:10;28.95;;;13.73;;
62554;SDS011;48610;52.144;8.624;2022-10-31T04:06:12;24.17;;;12.88;;
62554;SDS011;48610;52.144;8.624;2022-10-31T04:09:16;28.70;;;12.57;;
62554;SDS011;48610;52.144;8.624;2022-10-31T04:12:19;32.00;;;12.13;;
62554;SDS011;48610;52.144;8.624;2022-10-31T04:15:22;30.45;;;12.63;;
62554;SDS011;48610;52.144;8.624;2022-10-31T04:18:25;24.15;;;12.80;;
62554;SDS011;48610;52.144;8.624;2022-10-31T04:21:27;27.00;;;12.88;;
62554;SDS011;48610;52.144;8.624;2022-10-31T04:24:28;30.23;;;13.07;;
62554;SDS011;48610;52.144;8.624;2022-10-31T04:27:29;26.60;;;13.32;;
62554;SDS011;48610;52.144;8.624;2022-10-31T04:30:30;28.67;;;14.13;;
62554;SDS011;48610;52.144;8.624;2022-10-31T04:33:30;28.98;;;14.55;;
62554;SDS011;48610;52.144;8.624;2022-10-31T04:36:31;45.33;;;15.57;;
62554;SDS011;48610;52.144;8.624;2022-10-31T04:39:31;38.22;;;16.52;;
62554;SDS011;48610;52.144;8.624;2022-10-31T04:42:32;38.75;;;15.90;;
62554;SDS011;48610;52.144;8.624;2022-10-31T04:45:33;45.83;;;16.15;;
62554;SDS011;48610;52.144;8.624;2022-10-31T04:48:33;40.70;;;16.77;;
62554;SDS011;48610;52.144;8.624;2022-10-31T04:51:34;31.83;;;14.35;;
62554;SDS011;48610;52.144;8.624;2022-10-31T04:54:34;18.63;;;10.32;;
62554;SDS011;48610;52.144;8.624;2022-10-31T04:57:45;29.67;;;12.95;;
62554;SDS011;48610;52.144;8.624;2022-10-31T05:00:47;28.13;;;12.75;;
62554;SDS011;48610;52.144;8.624;2022-10-31T05:03:52;25.48;;;12.45;;
62554;SDS011;48610;52.144;8.624;2022-10-31T05:06:52;25.73;;;12.88;;
62554;SDS011;48610;52.144;8.624;2022-10-31T05:09:53;34.45;;;13.55;;
62554;SDS011;48610;52.144;8.624;2022-10-31T05:12:54;35.50;;;13.30;;
62554;SDS011;48610;52.144;8.624;2022-10-31T05:15:57;31.30;;;14.15;;
62554;SDS011;48610;52.144;8.624;2022-10-31T05:18:57;32.72;;;14.93;;
62554;SDS011;48610;52.144;8.624;2022-10-31T05:21:58;31.65;;;14.35;;
62554;SDS011;48610;52.144;8.624;2022-10-31T05:24:58;39.63;;;15.80;;
62554;SDS011;48610;52.144;8.624;2022-10-31T05:27:59;41.28;;;16.20;;
62554;SDS011;48610;52.144;8.624;2022-10-31T05:31:00;36.95;;;15.30;;
62554;SDS011;48610;52.144;8.624;2022-10-31T05:34:00;32.45;;;13.95;;
62554;SDS011;48610;52.144;8.624;2022-10-31T05:37:01;33.28;;;14.93;;
62554;SDS011;48610;52.144;8.624;2022-10-31T05:40:02;33.38;;;15.77;;
62554;SDS011;48610;52.144;8.624;2022-10-31T05:43:03;38.50;;;16.65;;
62554;SDS011;48610;52.144;8.624;2022-10-31T05:46:04;32.55;;;14.75;;
62554;SDS011;48610;52.144;8.624;2022-10-31T05:49:04;34.30;;;16.08;;
62554;SDS011;48610;52.144;8.624;2022-10-31T05:52:05;41.10;;;16.70;;
62554;SDS011;48610;52.144;8.624;2022-10-31T05:55:06;41.70;;;17.25;;
62554;SDS011;48610;52.144;8.624;2022-10-31T05:58:06;43.08;;;15.85;;
62554;SDS011;48610;52.144;8.624;2022-10-31T06:01:07;27.98;;;14.75;;
62554;SDS011;48610;52.144;8.624;2022-10-31T06:04:08;32.97;;;13.40;;
62554;SDS011;48610;52.144;8.624;2022-10-31T06:07:08;30.70;;;14.90;;
62554;SDS011;48610;52.144;8.624;2022-10-31T06:10:09;27.52;;;14.32;;
62554;SDS011;48610;52.144;8.624;2022-10-31T06:13:10;37.50;;;13.82;;
62554;SDS011;48610;52.144;8.624;2022-10-31T06:16:10;41.58;;;15.15;;
62554;SDS011;48610;52.144;8.624;2022-10-31T06:19:11;37.70;;;15.50;;
62554;SDS011;48610;52.144;8.624;2022-10-31T06:22:12;42.22;;;16.08;;
62554;SDS011;48610;52.144;8.624;2022-10-31T06:25:12;34.70;;;15.65;;
62554;SDS011;48610;52.144;8.624;2022-10-31T06:28:13;34.92;;;15.40;;
62554;SDS011;48610;52.144;8.624;2022-10-31T06:31:13;18.65;;;10.60;;
62554;SDS011;48610;52.144;8.624;2022-10-31T06:34:14;54.60;;;9.20;;
62554;SDS011;48610;52.144;8.624;2022-10-31T06:37:15;17.75;;;8.75;;
62554;SDS011;48610;52.144;8.624;2022-10-31T06:40:15;16.20;;;8.68;;
62554;SDS011;48610;52.144;8.624;2022-10-31T06:43:16;41.45;;;16.75;;
62554;SDS011;48610;52.144;8.624;2022-10-31T06:46:17;35.25;;;16.40;;
62554;SDS011;48610;52.144;8.624;2022-10-31T06:49:17;39.00;;;15.88;;
62554;SDS011;48610;52.144;8.624;2022-10-31T06:52:18;36.40;;;16.25;;
62554;SDS011;48610;52.144;8.624;2022-10-31T06:55:19;44.38;;;18.33;;
62554;SDS011;48610;52.144;8.624;2022-10-31T06:58:24;44.17;;;19.13;;
62554;SDS011;48610;52.144;8.624;2022-10-31T07:01:24;42.50;;;18.83;;
62554;SDS011;48610;52.144;8.624;2022-10-31T07:04:26;32.20;;;16.90;;
62554;SDS011;48610;52.144;8.624;2022-10-31T07:07:26;33.13;;;16.48;;
62554;SDS011;48610;52.144;8.624;2022-10-31T07:10:28;21.40;;;12.40;;
62554;SDS011;48610;52.144;8.624;2022-10-31T07:13:30;26.33;;;13.55;;
62554;SDS011;48610;52.144;8.624;2022-10-31T07:16:31;28.98;;;14.68;;
62554;SDS011;48610;52.144;8.624;2022-10-31T07:19:31;29.33;;;14.65;;
62554;SDS011;48610;52.144;8.624;2022-10-31T07:22:33;32.72;;;14.95;;
62554;SDS011;48610;52.144;8.624;2022-10-31T07:25:34;41.50;;;17.23;;
62554;SDS011;48610;52.144;8.624;2022-10-31T07:28:35;36.38;;;16.55;;
62554;SDS011;48610;52.144;8.624;2022-10-31T07:31:35;36.10;;;17.63;;
62554;SDS011;48610;52.144;8.624;2022-10-31T07:34:36;37.78;;;16.83;;
62554;SDS011;48610;52.144;8.624;2022-10-31T07:37:37;41.20;;;19.30;;
62554;SDS011;48610;52.144;8.624;2022-10-31T07:40:38;46.28;;;20.77;;
62554;SDS011;48610;52.144;8.624;2022-10-31T07:43:39;46.08;;;20.52;;
62554;SDS011;48610;52.144;8.624;2022-10-31T07:46:40;52.97;;;21.58;;
62554;SDS011;48610;52.144;8.624;2022-10-31T07:49:40;57.22;;;22.30;;
62554;SDS011;48610;52.144;8.624;2022-10-31T07:52:41;51.63;;;23.67;;
62554;SDS011;48610;52.144;8.624;2022-10-31T07:55:42;51.97;;;24.20;;
62554;SDS011;48610;52.144;8.624;2022-10-31T07:58:43;52.95;;;23.70;;
62554;SDS011;48610;52.144;8.624;2022-10-31T08:01:44;66.72;;;26.67;;
62554;SDS011;48610;52.144;8.624;2022-10-31T08:04:44;63.85;;;25.20;;
62554;SDS011;48610;52.144;8.624;2022-10-31T08:07:45;56.75;;;25.50;;
62554;SDS011;48610;52.144;8.624;2022-10-31T08:10:45;58.40;;;25.20;;
62554;SDS011;48610;52.144;8.624;2022-10-31T08:13:46;69.65;;;26.23;;
62554;SDS011;48610;52.144;8.624;2022-10-31T08:16:47;72.50;;;28.25;;
62554;SDS011;48610;52.144;8.624;2022-10-31T08:19:47;80.65;;;28.80;;
62554;SDS011;48610;52.144;8.624;2022-10-31T08:22:58;76.13;;;27.45;;
62554;SDS011;48610;52.144;8.624;2022-10-31T08:26:00;60.58;;;27.55;;
62554;SDS011;48610;52.144;8.624;2022-10-31T08:29:01;66.70;;;28.30;;
62554;SDS011;48610;52.144;8.624;2022-10-31T08:32:01;73.22;;;28.98;;
62554;SDS011;48610;52.144;8.624;2022-10-31T08:35:02;77.18;;;29.92;;
62554;SDS011;48610;52.144;8.624;2022-10-31T08:38:03;81.43;;;29.02;;
62554;SDS011;48610;52.144;8.624;2022-10-31T08:41:04;87.72;;;32.70;;
62554;SDS011;48610;52.144;8.624;2022-10-31T08:44:05;92.40;;;32.78;;
62554;SDS011;48610;52.144;8.624;2022-10-31T08:47:05;80.75;;;33.80;;
62554;SDS011;48610;52.144;8.624;2022-10-31T08:50:06;86.20;;;34.05;;
62554;SDS011;48610;52.144;8.624;2022-10-31T08:53:14;94.40;;;33.17;;
62554;SDS011;48610;52.144;8.624;2022-10-31T08:56:16;74.90;;;31.23;;
62554;SDS011;48610;52.144;8.624;2022-10-31T08:59:17;69.28;;;31.05;;
62554;SDS011;48610;52.144;8.624;2022-10-31T09:02:17;83.82;;;31.35;;
62554;SDS011;48610;52.144;8.624;2022-10-31T09:05:18;80.30;;;32.78;;
62554;SDS011;48610;52.144;8.624;2022-10-31T09:08:18;85.55;;;32.45;;
62554;SDS011;48610;52.144;8.624;2022-10-31T09:11:19;81.55;;;31.63;;
62554;SDS011;48610;52.144;8.624;2022-10-31T09:14:19;87.28;;;33.00;;
62554;SDS011;48610;52.144;8.624;2022-10-31T09:17:20;95.10;;;34.55;;
62554;SDS011;48610;52.144;8.624;2022-10-31T09:20:20;80.60;;;33.60;;
62554;SDS011;48610;52.144;8.624;2022-10-31T09:23:22;82.22;;;33.40;;
62554;SDS011;48610;52.144;8.624;2022-10-31T09:26:23;79.13;;;33.97;;
62554;SDS011;48610;52.144;8.624;2022-10-31T09:29:23;92.50;;;34.47;;
62554;SDS011;48610;52.144;8.624;2022-10-31T09:32:24;99.70;;;35.80;;
62554;SDS011;48610;52.144;8.624;2022-10-31T09:35:24;86.60;;;34.33;;
62554;SDS011;48610;52.144;8.624;2022-10-31T09:38:25;98.55;;;35.88;;
62554;SDS011;48610;52.144;8.624;2022-10-31T09:51:29;101.82;;;36.85;;
62554;SDS011;48610;52.144;8.624;2022-10-31T09:54:46;107.68;;;36.92;;
62554;SDS011;48610;52.144;8.624;2022-10-31T09:58:13;99.10;;;36.60;;
62554;SDS011;48610;52.144;8.624;2022-10-31T10:11:08;95.78;;;34.83;;
62554;SDS011;48610;52.144;8.624;2022-10-31T10:14:51;97.13;;;36.78;;
62554;SDS011;48610;52.144;8.624;2022-10-31T10:37:11;101.32;;;35.20;;
62554;SDS011;48610;52.144;8.624;2022-10-31T10:40:18;107.35;;;36.35;;
62554;SDS011;48610;52.144;8.624;2022-10-31T10:43:23;127.65;;;37.85;;
62554;SDS011;48610;52.144;8.624;2022-10-31T10:46:36;106.78;;;37.72;;
62554;SDS011;48610;52.144;8.624;2022-10-31T10:50:30;100.63;;;36.03;;
62554;SDS011;48610;52.144;8.624;2022-10-31T11:03:22;99.63;;;34.15;;
62554;SDS011;48610;52.144;8.624;2022-10-31T11:06:23;88.82;;;28.92;;
62554;SDS011;48610;52.144;8.624;2022-10-31T11:09:26;92.75;;;29.70;;
62554;SDS011;48610;52.144;8.624;2022-10-31T11:12:33;77.93;;;28.20;;
62554;SDS011;48610;52.144;8.624;2022-10-31T11:15:36;78.43;;;27.15;;
62554;SDS011;48610;52.144;8.624;2022-10-31T11:18:43;91.85;;;25.98;;
62554;SDS011;48610;52.144;8.624;2022-10-31T11:21:46;70.47;;;24.42;;
62554;SDS011;48610;52.144;8.624;2022-10-31T11:24:48;66.75;;;20.35;;
62554;SDS011;48610;52.144;8.624;2022-10-31T11:28:04;57.90;;;20.00;;
62554;SDS011;48610;52.144;8.624;2022-10-31T11:31:11;54.22;;;18.65;;
62554;SDS011;48610;52.144;8.624;2022-10-31T11:34:15;42.03;;;15.38;;
62554;SDS011;48610;52.144;8.624;2022-10-31T11:37:27;39.67;;;16.00;;
62554;SDS011;48610;52.144;8.624;2022-10-31T11:40:29;39.55;;;15.40;;
62554;SDS011;48610;52.144;8.624;2022-10-31T11:43:30;47.97;;;14.10;;
62554;SDS011;48610;52.144;8.624;2022-10-31T11:46:34;40.58;;;12.52;;
62554;SDS011;48610;52.144;8.624;2022-10-31T11:49:41;30.23;;;12.25;;
62554;SDS011;48610;52.144;8.624;2022-10-31T11:52:44;35.28;;;11.98;;
62554;SDS011;48610;52.144;8.624;2022-10-31T11:55:45;48.83;;;17.83;;
62554;SDS011;48610;52.144;8.624;2022-10-31T11:59:05;45.67;;;19.58;;
62554;SDS011;48610;52.144;8.624;2022-10-31T12:02:16;47.50;;;19.60;;
62554;SDS011;48610;52.144;8.624;2022-10-31T12:05:25;49.92;;;18.63;;
62554;SDS011;48610;52.144;8.624;2022-10-31T12:08:36;47.28;;;19.92;;
62554;SDS011;48610;52.144;8.624;2022-10-31T12:31:33;51.00;;;17.48;;
62554;SDS011;48610;52.144;8.624;2022-10-31T12:41:43;43.13;;;15.40;;
62554;SDS011;48610;52.144;8.624;2022-10-31T12:48:38;45.05;;;15.52;;
62554;SDS011;48610;52.144;8.624;2022-10-31T12:52:03;46.40;;;14.68;;
62554;SDS011;48610;52.144;8.624;2022-10-31T13:01:35;40.53;;;13.68;;
62554;SDS011;48610;52.144;8.624;2022-10-31T13:14:40;39.13;;;13.52;;
62554;SDS011;48610;52.144;8.624;2022-10-31T13:17:46;31.70;;;12.73;;
62554;SDS011;48610;52.144;8.624;2022-10-31T13:23:51;44.10;;;14.52;;
62554;SDS011;48610;52.144;8.624;2022-10-31T13:26:53;49.22;;;15.82;;
62554;SDS011;48610;52.144;8.624;2022-10-31T13:33:04;44.70;;;17.42;;
62554;SDS011;48610;52.144;8.624;2022-10-31T13:52:32;48.75;;;18.25;;
62554;SDS011;48610;52.144;8.624;2022-10-31T13:55:40;56.00;;;17.92;;
62554;SDS011;48610;52.144;8.624;2022-10-31T14:02:17;46.75;;;17.52;;
62554;SDS011;48610;52.144;8.624;2022-10-31T14:05:36;50.72;;;18.77;;
62554;SDS011;48610;52.144;8.624;2022-10-31T14:08:39;59.75;;;17.40;;
62554;SDS011;48610;52.144;8.624;2022-10-31T14:11:47;45.80;;;16.77;;
62554;SDS011;48610;52.144;8.624;2022-10-31T14:14:49;54.53;;;17.67;;
62554;SDS011;48610;52.144;8.624;2022-10-31T14:17:55;51.33;;;16.55;;
62554;SDS011;48610;52.144;8.624;2022-10-31T14:20:58;41.80;;;16.02;;
62554;SDS011;48610;52.144;8.624;2022-10-31T14:23:59;47.85;;;16.30;;
62554;SDS011;48610;52.144;8.624;2022-10-31T14:27:01;50.38;;;17.40;;
62554;SDS011;48610;52.144;8.624;2022-10-31T14:30:13;37.67;;;15.68;;
62554;SDS011;48610;52.144;8.624;2022-10-31T14:33:17;41.60;;;16.08;;
62554;SDS011;48610;52.144;8.624;2022-10-31T14:46:01;61.97;;;17.15;;
62554;SDS011;48610;52.144;8.624;2022-10-31T14:52:55;35.22;;;14.93;;
62554;SDS011;48610;52.144;8.624;2022-10-31T14:55:59;47.70;;;15.68;;
62554;SDS011;48610;52.144;8.624;2022-10-31T14:59:02;38.20;;;16.20;;
62554;SDS011;48610;52.144;8.624;2022-10-31T15:05:15;43.40;;;16.95;;
62554;SDS011;48610;52.144;8.624;2022-10-31T15:08:31;47.88;;;17.10;;
62554;SDS011;48610;52.144;8.624;2022-10-31T15:11:37;45.45;;;16.67;;
62554;SDS011;48610;52.144;8.624;2022-10-31T15:14:38;50.75;;;16.08;;
62554;SDS011;48610;52.144;8.624;2022-10-31T15:17:41;42.53;;;15.93;;
62554;SDS011;48610;52.144;8.624;2022-10-31T15:20:45;39.50;;;16.40;;
62554;SDS011;48610;52.144;8.624;2022-10-31T15:23:46;42.13;;;17.55;;
62554;SDS011;48610;52.144;8.624;2022-10-31T15:26:48;41.00;;;16.02;;
62554;SDS011;48610;52.144;8.624;2022-10-31T15:29:52;38.80;;;16.20;;
62554;SDS011;48610;52.144;8.624;2022-10-31T15:32:54;38.58;;;15.07;;
62554;SDS011;48610;52.144;8.624;2022-10-31T15:35:56;46.67;;;14.73;;
62554;SDS011;48610;52.144;8.624;2022-10-31T15:38:58;34.97;;;15.32;;
62554;SDS011;48610;52.144;8.624;2022-10-31T15:41:59;38.75;;;15.65;;
62554;SDS011;48610;52.144;8.624;2022-10-31T15:45:00;39.53;;;14.38;;
62554;SDS011;48610;52.144;8.624;2022-10-31T15:48:18;36.47;;;14.40;;
62554;SDS011;48610;52.144;8.624;2022-10-31T15:51:26;38.92;;;14.25;;
62554;SDS011;48610;52.144;8.624;2022-10-31T15:54:30;39.85;;;13.75;;
62554;SDS011;48610;52.144;8.624;2022-10-31T15:57:31;37.05;;;13.27;;
62554;SDS011;48610;52.144;8.624;2022-10-31T16:00:33;39.72;;;14.07;;
62554;SDS011;48610;52.144;8.624;2022-10-31T16:03:37;46.33;;;13.13;;
62554;SDS011;48610;52.144;8.624;2022-10-31T16:06:38;37.38;;;13.27;;
62554;SDS011;48610;52.144;8.624;2022-10-31T16:09:53;40.30;;;12.75;;
62554;SDS011;48610;52.144;8.624;2022-10-31T16:12:56;31.52;;;12.98;;
62554;SDS011;48610;52.144;8.624;2022-10-31T16:15:57;36.95;;;13.38;;
62554;SDS011;48610;52.144;8.624;2022-10-31T16:19:16;28.38;;;12.05;;
62554;SDS011;48610;52.144;8.624;2022-10-31T16:22:22;32.28;;;13.32;;
62554;SDS011;48610;52.144;8.624;2022-10-31T16:25:27;35.95;;;14.18;;
62554;SDS011;48610;52.144;8.624;2022-10-31T16:28:36;25.60;;;12.80;;
62554;SDS011;48610;52.144;8.624;2022-10-31T16:31:38;33.75;;;12.63;;
62554;SDS011;48610;52.144;8.624;2022-10-31T16:34:39;27.77;;;11.90;;
62554;SDS011;48610;52.144;8.624;2022-10-31T16:37:40;32.90;;;13.27;;
62554;SDS011;48610;52.144;8.624;2022-10-31T16:40:41;42.33;;;14.13;;
62554;SDS011;48610;52.144;8.624;2022-10-31T16:43:43;43.10;;;13.13;;
62554;SDS011;48610;52.144;8.624;2022-10-31T16:46:44;33.15;;;13.15;;
62554;SDS011;48610;52.144;8.624;2022-10-31T16:49:46;45.05;;;13.70;;
62554;SDS011;48610;52.144;8.624;2022-10-31T16:52:48;33.17;;;15.63;;
62554;SDS011;48610;52.144;8.624;2022-10-31T16:55:59;43.30;;;16.20;;
62554;SDS011;48610;52.144;8.624;2022-10-31T16:59:03;52.08;;;14.90;;
62554;SDS011;48610;52.144;8.624;2022-10-31T17:02:08;37.30;;;14.73;;
62554;SDS011;48610;52.144;8.624;2022-10-31T17:05:16;37.85;;;16.50;;
62554;SDS011;48610;52.144;8.624;2022-10-31T17:08:17;50.97;;;18.25;;
62554;SDS011;48610;52.144;8.624;2022-10-31T17:11:19;39.95;;;14.57;;
62554;SDS011;48610;52.144;8.624;2022-10-31T17:14:23;35.70;;;14.07;;
62554;SDS011;48610;52.144;8.624;2022-10-31T17:17:24;28.58;;;13.55;;
62554;SDS011;48610;52.144;8.624;2022-10-31T17:20:25;38.20;;;14.38;;
62554;SDS011;48610;52.144;8.624;2022-10-31T17:23:28;41.90;;;16.45;;
62554;SDS011;48610;52.144;8.624;2022-10-31T17:26:29;34.35;;;15.77;;
62554;SDS011;48610;52.144;8.624;2022-10-31T17:29:29;36.38;;;16.23;;
62554;SDS011;48610;52.144;8.624;2022-10-31T17:32:30;36.35;;;16.42;;
62554;SDS011;48610;52.144;8.624;2022-10-31T17:35:31;35.00;;;15.55;;
62554;SDS011;48610;52.144;8.624;2022-10-31T17:38:31;42.72;;;16.83;;
62554;SDS011;48610;52.144;8.624;2022-10-31T17:41:32;44.67;;;17.65;;
62554;SDS011;48610;52.144;8.624;2022-10-31T17:44:32;38.47;;;16.75;;
62554;SDS011;48610;52.144;8.624;2022-10-31T17:47:34;46.42;;;18.27;;
62554;SDS011;48610;52.144;8.624;2022-10-31T17:50:35;49.50;;;19.38;;
62554;SDS011;48610;52.144;8.624;2022-10-31T17:53:35;60.95;;;18.63;;
62554;SDS011;48610;52.144;8.624;2022-10-31T17:56:36;48.28;;;20.20;;
62554;SDS011;48610;52.144;8.624;2022-10-31T17:59:37;49.42;;;20.15;;
62554;SDS011;48610;52.144;8.624;2022-10-31T18:02:37;47.63;;;21.00;;
62554;SDS011;48610;52.144;8.624;2022-10-31T18:05:38;48.13;;;19.80;;
62554;SDS011;48610;52.144;8.624;2022-10-31T18:08:39;47.85;;;20.65;;
62554;SDS011;48610;52.144;8.624;2022-10-31T18:11:40;59.05;;;22.13;;
62554;SDS011;48610;52.144;8.624;2022-10-31T18:14:41;48.38;;;21.15;;
62554;SDS011;48610;52.144;8.624;2022-10-31T18:17:42;43.85;;;19.83;;
62554;SDS011;48610;52.144;8.624;2022-10-31T18:20:42;57.45;;;23.15;;
62554;SDS011;48610;52.144;8.624;2022-10-31T18:23:43;52.60;;;21.92;;
62554;SDS011;48610;52.144;8.624;2022-10-31T18:26:44;59.90;;;22.88;;
62554;SDS011;48610;52.144;8.624;2022-10-31T18:29:44;57.85;;;22.67;;
62554;SDS011;48610;52.144;8.624;2022-10-31T18:32:47;56.30;;;22.77;;
62554;SDS011;48610;52.144;8.624;2022-10-31T18:35:49;63.40;;;23.60;;
62554;SDS011;48610;52.144;8.624;2022-10-31T18:38:50;60.40;;;22.27;;
62554;SDS011;48610;52.144;8.624;2022-10-31T18:41:51;66.45;;;23.67;;
62554;SDS011;48610;52.144;8.624;2022-10-31T18:44:53;49.97;;;20.83;;
62554;SDS011;48610;52.144;8.624;2022-10-31T18:47:54;58.10;;;23.77;;
62554;SDS011;48610;52.144;8.624;2022-10-31T18:50:55;60.42;;;23.13;;
62554;SDS011;48610;52.144;8.624;2022-10-31T18:54:03;49.67;;;21.67;;
62554;SDS011;48610;52.144;8.624;2022-10-31T18:57:03;55.63;;;23.17;;
62554;SDS011;48610;52.144;8.624;2022-10-31T19:00:04;60.05;;;22.80;;
62554;SDS011;48610;52.144;8.624;2022-10-31T19:03:05;64.63;;;22.77;;
62554;SDS011;48610;52.144;8.624;2022-10-31T19:06:06;79.53;;;23.75;;
62554;SDS011;48610;52.144;8.624;2022-10-31T19:09:08;66.72;;;22.00;;
62554;SDS011;48610;52.144;8.624;2022-10-31T19:12:09;64.07;;;22.95;;
62554;SDS011;48610;52.144;8.624;2022-10-31T19:15:10;54.60;;;22.08;;
62554;SDS011;48610;52.144;8.624;2022-10-31T19:18:10;62.72;;;22.90;;
62554;SDS011;48610;52.144;8.624;2022-10-31T19:21:12;64.43;;;23.38;;
62554;SDS011;48610;52.144;8.624;2022-10-31T19:24:14;62.40;;;22.90;;
62554;SDS011;48610;52.144;8.624;2022-10-31T19:27:14;51.00;;;21.52;;
62554;SDS011;48610;52.144;8.624;2022-10-31T19:30:15;56.72;;;22.45;;
62554;SDS011;48610;52.144;8.624;2022-10-31T19:33:15;66.88;;;22.65;;
62554;SDS011;48610;52.144;8.624;2022-10-31T19:36:17;68.88;;;21.80;;
62554;SDS011;48610;52.144;8.624;2022-10-31T19:39:18;58.88;;;23.45;;
62554;SDS011;48610;52.144;8.624;2022-10-31T19:42:19;60.88;;;21.73;;
62554;SDS011;48610;52.144;8.624;2022-10-31T19:45:20;50.42;;;20.30;;
62554;SDS011;48610;52.144;8.624;2022-10-31T19:48:20;49.50;;;20.83;;
62554;SDS011;48610;52.144;8.624;2022-10-31T19:51:21;55.30;;;20.90;;
62554;SDS011;48610;52.144;8.624;2022-10-31T19:54:21;45.63;;;20.52;;
62554;SDS011;48610;52.144;8.624;2022-10-31T19:57:22;62.30;;;20.33;;
62554;SDS011;48610;52.144;8.624;2022-10-31T20:00:23;52.55;;;18.98;;
62554;SDS011;48610;52.144;8.624;2022-10-31T20:03:23;60.42;;;21.08;;
62554;SDS011;48610;52.144;8.624;2022-10-31T20:06:25;45.63;;;18.52;;
62554;SDS011;48610;52.144;8.624;2022-10-31T20:09:32;54.53;;;20.88;;
62554;SDS011;48610;52.144;8.624;2022-10-31T20:12:33;56.90;;;19.35;;
62554;SDS011;48610;52.144;8.624;2022-10-31T20:15:34;63.33;;;21.65;;
62554;SDS011;48610;52.144;8.624;2022-10-31T20:18:35;52.92;;;20.88;;
62554;SDS011;48610;52.144;8.624;2022-10-31T20:21:37;61.08;;;19.35;;
62554;SDS011;48610;52.144;8.624;2022-10-31T20:24:39;57.95;;;18.80;;
62554;SDS011;48610;52.144;8.624;2022-10-31T20:27:39;44.42;;;19.10;;
62554;SDS011;48610;52.144;8.624;2022-10-31T20:30:40;41.25;;;17.05;;
62554;SDS011;48610;52.144;8.624;2022-10-31T20:33:41;48.40;;;18.30;;
62554;SDS011;48610;52.144;8.624;2022-10-31T20:36:42;62.38;;;19.40;;